This is the latest recevied weather packets stored in our database for station/object KB4JHU-15. If no packets are shown the sender has not sent any weather packets the latest 1 day(s).
| Time | Temp. | Humidity | Pressure | Rain* | Wind** | Luminosity | Snow |
|---|---|---|---|---|---|---|---|
| 1778040427 | 21.11° C | 65% | - | 0 mm | 0.45 m/s, 142° | - | - |
| 1778038626 | 21.11° C | 66% | - | 0 mm | 0.45 m/s, 222° | - | - |
| 1778036825 | 20.56° C | 66% | - | 0 mm | 0.45 m/s, 8° | - | - |
| 1778035024 | 21.11° C | 66% | - | 0 mm | 0 m/s | - | - |
| 1778033223 | 21.11° C | 64% | - | 0 mm | 0.45 m/s, 311° | - | - |
| 1778031422 | 21.11° C | 62% | - | 0 mm | 0.89 m/s, 68° | - | - |
| 1778029621 | 21.11° C | 62% | - | 0 mm | 0.45 m/s, 179° | - | - |
| 1778027820 | 21.67° C | 60% | - | 0 mm | 0.89 m/s, 345° | - | - |
| 1778026019 | 21.67° C | 58% | - | 0 mm | 0.89 m/s, 21° | - | - |
| 1778024218 | 22.22° C | 58% | - | 0 mm | 1.34 m/s, 124° | - | - |
| 1778022417 | 22.22° C | 56% | - | 0 mm | 0.89 m/s, 13° | - | - |
| 1778020616 | 22.22° C | 56% | - | 0 mm | 0.45 m/s, 41° | - | - |
| 1778018815 | 22.22° C | 57% | - | 0 mm | 0.89 m/s, 193° | - | - |
| 1778017014 | 21.67° C | 59% | - | 0 mm | 0.89 m/s, 311° | - | - |
| 1778015213 | 22.22° C | 56% | - | 0 mm | 0.89 m/s, 215° | - | - |
| 1778013412 | 21.67° C | 55% | - | 0 mm | 1.34 m/s, 160° | - | - |
| 1778011611 | 21.11° C | 56% | - | 0 mm | 0.89 m/s, 271° | - | - |
| 1778009810 | 22.78° C | 47% | - | 0 mm | 1.79 m/s, 52° | - | - |
| 1778008009 | 22.78° C | 45% | - | 0 mm | 1.34 m/s, 51° | - | - |
| 1778006208 | 23.33° C | 50% | - | 0 mm | 0.45 m/s, 267° | - | - |
| 1778004407 | 22.78° C | 51% | - | 0 mm | 1.34 m/s, 300° | - | - |
| 1778002606 | 22.78° C | 49% | - | 0 mm | 1.34 m/s, 221° | - | - |
| 1778000805 | 22.78° C | 49% | - | 0 mm | 1.79 m/s, 277° | - | - |
| 1777999004 | 22.78° C | 53% | - | 0 mm | 0.89 m/s, 328° | - | - |
| 1777997203 | 22.22° C | 57% | - | 0 mm | 0.45 m/s, 53° | - | - |
* Rain latest hour (hover to see other rain measurements)
** Current wind speed in m/s (hover to see current wind gust speed)